Time;durP1;ratioP1;P1;durP2;ratioP2;P2;SDS_P1;SDS_P2;PMS_P1;PMS_P2;Temp;Humidity;BMP_temperature;BMP_pressure;BME280_temperature;BME280_humidity;BME280_pressure;Samples;Min_cycle;Max_cycle;Signal;HPM_P1;HPM_P2
2022/05/14 00:01:03;;;;;;;16.13;6.25;;;;;;;11.87;100.00;101834.13;5001711;28;20251;-78
2022/05/14 00:03:34;;;;;;;12.98;5.88;;;;;;;11.86;100.00;101831.44;4990655;28;20057;-78
2022/05/14 00:06:05;;;;;;;19.23;6.13;;;;;;;11.84;100.00;101833.19;5007565;28;20057;-78
2022/05/14 00:08:35;;;;;;;21.08;5.75;;;;;;;11.83;100.00;101826.13;4992307;28;20045;-78
2022/05/14 00:13:51;;;;;;;16.23;6.18;;;;;;;11.84;100.00;101819.97;4966595;28;20168;-78
2022/05/14 00:16:22;;;;;;;23.67;7.13;;;;;;;11.83;100.00;101828.75;5009900;28;20406;-77
2022/05/14 00:18:51;;;;;;;19.42;6.05;;;;;;;11.84;100.00;101830.53;5005035;28;25349;-78
2022/05/14 00:21:21;;;;;;;20.50;7.07;;;;;;;11.84;100.00;101836.72;5014780;28;20057;-78
2022/05/14 00:23:50;;;;;;;21.65;6.22;;;;;;;11.86;100.00;101834.09;5014930;28;20427;-78
2022/05/14 00:26:18;;;;;;;17.80;6.50;;;;;;;11.87;100.00;101834.13;5031756;28;20045;-78
2022/05/14 00:28:47;;;;;;;14.30;6.00;;;;;;;11.88;100.00;101840.28;5021124;28;20250;-78
2022/05/14 00:31:16;;;;;;;24.05;6.75;;;;;;;11.90;100.00;101835.94;5016127;28;20046;-78
2022/05/14 00:33:46;;;;;;;23.35;6.90;;;;;;;11.91;100.00;101843.00;5013582;28;20041;-78
2022/05/14 00:36:15;;;;;;;16.98;6.05;;;;;;;11.92;100.00;101839.47;4982044;28;20051;-79
2022/05/14 00:38:43;;;;;;;23.75;6.43;;;;;;;11.92;100.00;101838.59;5006004;28;20373;-78
2022/05/14 00:41:12;;;;;;;21.38;6.28;;;;;;;11.91;100.00;101837.72;4989035;28;20058;-78
2022/05/14 00:43:56;;;;;;;17.73;6.10;;;;;;;11.89;100.00;101850.00;4994659;28;20043;-78
2022/05/14 00:46:38;;;;;;;20.80;6.57;;;;;;;11.89;100.00;101844.72;4993546;28;20050;-78
2022/05/14 00:49:08;;;;;;;19.80;6.43;;;;;;;11.88;100.00;101843.81;4993404;28;20050;-78
2022/05/14 00:51:41;;;;;;;14.73;5.60;;;;;;;11.89;100.00;101842.06;4974233;28;20050;-78
2022/05/14 00:54:15;;;;;;;19.02;6.43;;;;;;;11.90;100.00;101843.84;5005338;28;20373;-78
2022/05/14 00:56:50;;;;;;;21.05;7.05;;;;;;;11.92;100.00;101852.69;4990597;28;20042;-80
2022/05/14 00:59:24;;;;;;;25.05;6.75;;;;;;;11.90;100.00;101846.50;4984680;28;20406;-79
2022/05/14 01:01:54;;;;;;;18.60;5.90;;;;;;;11.91;100.00;101837.72;4996977;28;20050;-79
2022/05/14 01:04:26;;;;;;;24.45;6.60;;;;;;;11.90;100.00;101843.84;4967137;28;20160;-79
2022/05/14 01:07:09;;;;;;;21.98;6.70;;;;;;;11.87;100.00;101843.78;4982977;28;20378;-78
2022/05/14 01:09:45;;;;;;;19.95;6.53;;;;;;;11.83;100.00;101842.88;5001474;28;20039;-79
2022/05/14 01:12:15;;;;;;;25.42;6.22;;;;;;;11.80;100.00;101839.28;5008097;28;20065;-79
2022/05/14 01:14:44;;;;;;;17.80;5.78;;;;;;;11.77;100.00;101836.59;4993119;28;20046;-80
2022/05/14 01:17:13;;;;;;;22.50;6.75;;;;;;;11.74;100.00;101848.03;4988602;28;20050;-78
2022/05/14 01:19:42;;;;;;;21.23;6.22;;;;;;;11.70;100.00;101847.09;4966635;28;20046;-78
2022/05/14 01:22:36;;;;;;;20.85;6.95;;;;;;;11.68;100.00;101851.47;4972818;28;20495;-79
2022/05/14 01:28:16;;;;;;;22.13;6.65;;;;;;;11.65;100.00;101859.31;5002544;28;20042;-79
2022/05/14 01:30:51;;;;;;;22.20;6.85;;;;;;;11.65;100.00;101851.41;4982669;28;20049;-78
2022/05/14 01:33:21;;;;;;;21.92;6.32;;;;;;;11.64;100.00;101854.88;4987022;28;20038;-78
2022/05/14 01:35:49;;;;;;;23.50;7.25;;;;;;;11.63;100.00;101852.25;4996359;28;20255;-79
2022/05/14 01:38:23;;;;;;;26.70;7.30;;;;;;;11.63;100.00;101853.13;4976899;28;20414;-78
2022/05/14 01:40:51;;;;;;;;;;;;;;;11.64;100.00;101856.66;5003330;28;20354;-77
2022/05/14 01:43:20;;;;;;;27.40;7.55;;;;;;;11.63;100.00;101854.91;4989435;28;19929;-80
2022/05/14 01:45:49;;;;;;;22.45;7.93;;;;;;;11.63;100.00;101852.25;4979547;28;20160;-78
2022/05/14 01:48:17;;;;;;;26.67;6.90;;;;;;;11.62;100.00;101859.25;4976087;28;20042;-78
2022/05/14 01:50:46;;;;;;;29.88;7.47;;;;;;;11.62;100.00;101867.19;4992008;28;20031;-79
2022/05/14 01:53:14;;;;;;;28.10;8.90;;;;;;;11.61;100.00;101868.06;4974044;28;20400;-78
2022/05/14 01:55:43;;;;;;;18.67;6.85;;;;;;;11.62;100.00;101864.53;4969760;28;20046;-79
2022/05/14 02:01:06;;;;;;;24.85;7.53;;;;;;;11.62;100.00;101861.91;4996903;28;20419;-79
2022/05/14 02:03:36;;;;;;;25.90;7.63;;;;;;;11.63;100.00;101868.97;4995808;28;20044;-79
2022/05/14 02:06:05;;;;;;;29.35;8.30;;;;;;;11.62;100.00;101858.38;4991395;28;20337;-79
2022/05/14 02:08:34;;;;;;;29.10;8.00;;;;;;;11.58;100.00;101857.44;4979487;28;20057;-79
2022/05/14 02:11:03;;;;;;;38.05;9.25;;;;;;;11.57;100.00;101858.34;4979904;28;20247;-79
2022/05/14 02:13:35;;;;;;;27.40;8.18;;;;;;;11.57;100.00;101860.06;5003973;28;20042;-79
2022/05/14 02:16:04;;;;;;;25.10;7.68;;;;;;;11.55;100.00;101853.88;4970344;28;20167;-80
2022/05/14 02:18:33;;;;;;;32.47;8.00;;;;;;;11.53;100.00;101861.78;5007588;28;20045;-79
2022/05/14 02:21:02;;;;;;;31.42;7.78;;;;;;;11.52;100.00;101862.63;4974363;28;20077;-79
2022/05/14 02:23:32;;;;;;;28.17;8.30;;;;;;;11.49;100.00;101859.94;4993379;28;20046;-79
2022/05/14 02:26:05;;;;;;;;;;;;;;;11.45;100.00;101853.72;4975861;28;20599;-78
2022/05/14 02:28:36;;;;;;;25.92;9.02;;;;;;;11.42;100.00;101855.47;4985897;28;19929;-78
2022/05/14 02:31:05;;;;;;;27.75;9.35;;;;;;;11.39;100.00;101850.13;4969540;28;20252;-78
2022/05/14 02:33:34;;;;;;;23.83;7.63;;;;;;;11.34;100.00;101849.16;5000579;28;20545;-78
2022/05/14 02:36:10;;;;;;;31.50;9.20;;;;;;;11.31;100.00;101848.25;4979166;28;20050;-78
2022/05/14 02:38:40;;;;;;;32.00;9.43;;;;;;;11.27;100.00;101856.09;4983418;28;20042;-78
2022/05/14 02:41:09;;;;;;;33.45;9.57;;;;;;;11.23;100.00;101854.28;4972529;28;20034;-78
2022/05/14 02:43:38;;;;;;;30.48;8.32;;;;;;;11.23;100.00;101852.50;4986095;28;20038;-79
2022/05/14 02:46:07;;;;;;;34.28;9.18;;;;;;;11.20;100.00;101860.38;4988111;28;20050;-79
2022/05/14 02:48:36;;;;;;;29.27;8.97;;;;;;;11.17;100.00;101869.97;4992876;28;20046;-79
2022/05/14 02:51:06;;;;;;;28.35;8.45;;;;;;;11.14;100.00;101872.59;4974003;28;20607;-79
2022/05/14 02:53:35;;;;;;;31.73;8.80;;;;;;;11.10;100.00;101869.88;4996479;28;20411;-78
2022/05/14 02:56:03;;;;;;;36.25;10.60;;;;;;;11.10;100.00;101869.00;4922680;28;20137;-80
2022/05/14 03:01:20;;;;;;;36.72;10.45;;;;;;;11.04;100.00;101871.50;5019979;28;20057;-78
2022/05/14 03:03:48;;;;;;;32.72;10.40;;;;;;;11.02;100.00;101867.94;4977901;28;20029;-78
2022/05/14 03:06:17;;;;;;;39.00;9.00;;;;;;;11.00;100.00;101875.88;4983114;28;20045;-78
2022/05/14 03:08:46;;;;;;;39.13;9.82;;;;;;;10.98;100.00;101874.03;4997856;28;20044;-78
2022/05/14 03:11:14;;;;;;;42.38;10.63;;;;;;;10.93;100.00;101874.84;4968135;28;20041;-78
2022/05/14 03:13:44;;;;;;;33.20;9.73;;;;;;;10.91;100.00;101876.56;5000806;28;20122;-78
2022/05/14 03:16:13;;;;;;;33.20;9.65;;;;;;;10.89;100.00;101873.03;5002742;28;20399;-78
2022/05/14 03:18:41;;;;;;;33.47;8.88;;;;;;;10.88;100.00;101876.50;4992695;28;20043;-78
2022/05/14 03:21:10;;;;;;;34.80;10.43;;;;;;;10.84;100.00;101877.31;4968026;28;20042;-79
2022/05/14 03:23:38;;;;;;;39.08;9.98;;;;;;;10.79;100.00;101873.69;4964013;28;20046;-80
2022/05/14 03:26:07;;;;;;;33.72;10.07;;;;;;;10.76;100.00;101873.66;4984272;28;20053;-78
2022/05/14 03:28:35;;;;;;;29.08;9.38;;;;;;;10.76;100.00;101883.31;4964719;28;20042;-80
2022/05/14 03:31:03;;;;;;;31.50;10.45;;;;;;;10.72;100.00;101887.66;4969474;28;20164;-78
2022/05/14 03:33:33;;;;;;;43.95;10.15;;;;;;;10.71;100.00;101881.47;4984540;28;20054;-78
2022/05/14 03:36:02;;;;;;;32.88;9.63;;;;;;;10.68;100.00;101878.78;4981135;28;20054;-78
2022/05/14 03:38:30;;;;;;;37.03;10.55;;;;;;;10.66;100.00;101882.25;4975101;28;20387;-78
2022/05/14 03:40:59;;;;;;;40.92;11.02;;;;;;;10.65;100.00;101886.63;4998541;28;20447;-79
2022/05/14 03:43:28;;;;;;;37.53;9.65;;;;;;;10.64;100.00;101897.13;4971248;28;20038;-78
2022/05/14 03:45:58;;;;;;;24.77;9.93;;;;;;;10.62;100.00;101890.94;4967006;28;20539;-79
2022/05/14 03:48:31;;;;;;;41.50;12.38;;;;;;;10.58;100.00;101891.75;4970484;28;20428;-80
2022/05/14 03:51:00;;;;;;;35.00;9.88;;;;;;;10.54;100.00;101893.44;4973309;28;20034;-78
2022/05/14 03:53:30;;;;;;;37.13;10.55;;;;;;;10.53;100.00;101902.22;5006693;28;20392;-79
2022/05/14 03:56:00;;;;;;;33.93;10.07;;;;;;;10.50;100.00;101895.13;5002324;28;20265;-78
2022/05/14 03:58:28;;;;;;;33.65;10.35;;;;;;;10.50;100.00;101903.03;4971125;28;20312;-79
2022/05/14 04:01:01;;;;;;;34.63;10.10;;;;;;;10.50;100.00;101904.78;4953666;28;20081;-79
2022/05/14 04:03:32;;;;;;;34.80;10.18;;;;;;;10.49;100.00;101909.16;4981319;28;20050;-79
2022/05/14 04:06:02;;;;;;;31.25;10.60;;;;;;;10.52;100.00;101913.59;5002441;28;20762;-79
2022/05/14 04:08:32;;;;;;;46.55;11.02;;;;;;;10.50;100.00;101912.69;5003037;28;20043;-79
2022/05/14 04:11:01;;;;;;;31.50;10.32;;;;;;;10.49;100.00;101919.72;4997661;28;20122;-78
2022/05/14 04:13:30;;;;;;;40.90;10.55;;;;;;;10.51;100.00;101930.28;4988319;28;20484;-78
2022/05/14 04:15:59;;;;;;;43.40;11.20;;;;;;;10.52;100.00;101924.16;4967196;28;20111;-78
2022/05/14 04:18:29;;;;;;;45.03;9.97;;;;;;;10.51;100.00;101922.38;4998329;28;20057;-78
2022/05/14 04:21:00;;;;;;;37.00;10.00;;;;;;;10.52;100.00;101925.03;4999727;28;20224;-78
2022/05/14 04:23:31;;;;;;;29.40;9.63;;;;;;;10.53;100.00;101926.81;5010354;28;20034;-78
2022/05/14 04:26:00;;;;;;;36.92;10.38;;;;;;;10.54;100.00;101928.56;4978069;28;20277;-79
2022/05/14 04:28:30;;;;;;;33.70;10.70;;;;;;;10.56;100.00;101922.47;4996677;28;20038;-78
2022/05/14 04:31:01;;;;;;;38.75;11.13;;;;;;;10.57;100.00;101933.03;4978918;28;20077;-79
2022/05/14 04:33:31;;;;;;;38.03;11.02;;;;;;;10.60;100.00;101932.19;5010786;28;20037;-79
2022/05/14 04:36:00;;;;;;;45.00;10.40;;;;;;;10.66;100.00;101942.88;4972505;28;20462;-80
2022/05/14 04:38:28;;;;;;;34.40;10.73;;;;;;;10.90;100.00;101931.91;4981049;28;20047;-79
2022/05/14 04:40:57;;;;;;;35.08;9.85;;;;;;;11.09;100.00;101944.59;4998482;28;20408;-78
2022/05/14 04:43:26;;;;;;;42.42;10.98;;;;;;;11.21;100.00;101936.03;5003270;28;20054;-80
2022/05/14 04:45:55;;;;;;;33.85;10.80;;;;;;;11.64;100.00;101930.56;4962966;28;20042;-78
2022/05/14 04:48:24;;;;;;;32.80;8.50;;;;;;;12.14;100.00;101930.50;4971372;28;20081;-78
2022/05/14 04:50:54;;;;;;;35.42;9.65;;;;;;;12.67;100.00;101938.22;4985664;28;20124;-78
2022/05/14 04:53:23;;;;;;;27.05;8.35;;;;;;;13.15;100.00;101946.69;4984424;28;20046;-80
2022/05/14 04:55:53;;;;;;;29.80;8.07;;;;;;;13.55;100.00;101941.78;4965023;28;20069;-79
2022/05/14 04:58:22;;;;;;;34.83;8.13;;;;;;;13.92;100.00;101943.84;5009407;28;20045;-78
2022/05/14 05:00:51;;;;;;;26.08;7.60;;;;;;;14.25;100.00;101953.75;4981553;28;20174;-79
2022/05/14 05:03:20;;;;;;;29.70;8.13;;;;;;;14.58;100.00;101949.53;5006764;28;20051;-79
2022/05/14 05:06:00;;;;;;;31.77;8.82;;;;;;;14.97;100.00;101945.22;4990293;28;20175;-79
2022/05/14 05:08:31;;;;;;;34.75;7.68;;;;;;;15.27;100.00;101944.41;4988311;28;20516;-78
2022/05/14 05:11:00;;;;;;;30.92;7.28;;;;;;;15.56;100.00;101949.75;4980278;28;20042;-78
2022/05/14 05:13:30;;;;;;;26.88;6.97;;;;;;;15.88;100.00;101955.94;5004988;28;20045;-78
2022/05/14 05:15:59;;;;;;;;;;;;;;;16.16;100.00;101965.69;4952544;28;21464;-78
2022/05/14 05:18:27;;;;;;;27.02;8.05;;;;;;;16.41;100.00;101954.97;5001508;28;19922;-80
2022/05/14 05:20:56;;;;;;;21.67;6.55;;;;;;;16.52;100.00;101962.88;4991267;28;20054;-78
2022/05/14 05:23:26;;;;;;;26.55;8.20;;;;;;;16.56;100.00;101967.34;4995328;28;20046;-78
2022/05/14 05:25:57;;;;;;;20.60;6.25;;;;;;;16.68;100.00;101961.06;5007478;28;20761;-78
2022/05/14 05:28:27;;;;;;;22.50;6.55;;;;;;;16.87;100.00;101967.22;5007972;28;20399;-78
2022/05/14 05:30:56;;;;;;;24.63;6.35;;;;;;;17.23;100.00;101967.91;4982224;28;21087;-79
2022/05/14 05:33:25;;;;;;;29.15;7.10;;;;;;;17.53;100.00;101975.66;5001008;28;20042;-79
2022/05/14 05:35:53;;;;;;;27.02;7.05;;;;;;;17.84;100.00;101961.19;4988108;28;20146;-79
2022/05/14 05:38:22;;;;;;;20.73;6.55;;;;;;;18.17;100.00;101973.34;4994559;28;20050;-79
2022/05/14 05:40:52;;;;;;;21.38;6.43;;;;;;;18.55;100.00;101982.72;4976140;28;20271;-79
2022/05/14 05:43:20;;;;;;;25.63;6.88;;;;;;;18.87;100.00;101976.13;4988306;28;20046;-79
2022/05/14 05:45:49;;;;;;;27.42;6.82;;;;;;;19.05;99.99;101972.28;4954933;28;20455;-78
2022/05/14 05:48:19;;;;;;;24.90;6.22;;;;;;;19.21;98.68;101987.19;5007803;28;20499;-78
2022/05/14 05:50:48;;;;;;;24.00;7.13;;;;;;;19.48;96.90;101982.34;5014102;28;20259;-79
2022/05/14 05:53:17;;;;;;;25.98;6.50;;;;;;;19.61;94.30;101980.34;5029271;28;20049;-79
2022/05/14 05:58:33;;;;;;;26.83;6.80;;;;;;;19.53;90.53;101987.59;5010731;28;20052;-78
2022/05/14 06:01:01;;;;;;;24.48;6.22;;;;;;;19.09;89.08;101984.69;5025267;28;20408;-79
2022/05/14 06:03:30;;;;;;;28.38;7.38;;;;;;;18.66;89.18;101990.59;4968397;28;20050;-78
2022/05/14 06:05:58;;;;;;;23.00;6.13;;;;;;;18.34;89.61;101996.31;5001107;28;20049;-78
2022/05/14 06:08:27;;;;;;;27.45;7.57;;;;;;;17.98;89.98;101996.66;5022681;28;20046;-78
2022/05/14 06:10:55;;;;;;;20.83;6.13;;;;;;;17.79;90.56;101997.66;4977622;28;20290;-78
2022/05/14 06:13:24;;;;;;;25.13;6.50;;;;;;;17.56;89.86;101995.19;4979458;28;20043;-78
2022/05/14 06:15:52;;;;;;;19.50;5.85;;;;;;;17.39;90.61;102008.63;4992378;28;20539;-78
2022/05/14 06:18:21;;;;;;;20.38;5.68;;;;;;;17.15;91.35;102015.91;4982535;28;20051;-78
2022/05/14 06:20:50;;;;;;;18.67;6.18;;;;;;;16.99;91.28;102020.38;5013705;28;20346;-78
2022/05/14 06:23:19;;;;;;;23.58;6.35;;;;;;;16.79;91.74;102016.94;5022261;28;20038;-79
2022/05/14 06:25:48;;;;;;;24.48;6.30;;;;;;;16.56;92.12;102020.56;4989318;28;20280;-79
2022/05/14 06:28:17;;;;;;;23.08;6.60;;;;;;;16.38;92.92;102025.00;4994316;28;20054;-79
2022/05/14 06:30:45;;;;;;;18.08;5.13;;;;;;;16.27;93.38;102029.47;5005789;28;20050;-78
2022/05/14 06:33:16;;;;;;;20.23;6.05;;;;;;;16.33;94.22;102031.22;4972686;28;20049;-79
2022/05/14 06:35:45;;;;;;;26.42;7.13;;;;;;;16.32;94.29;102051.63;4983899;28;20050;-78
2022/05/14 06:38:14;;;;;;;22.05;5.40;;;;;;;16.34;94.76;102044.53;4991217;28;20045;-78
2022/05/14 06:40:43;;;;;;;25.08;6.40;;;;;;;16.22;93.71;102036.59;5004394;28;20042;-78
2022/05/14 06:43:15;;;;;;;20.33;5.60;;;;;;;16.01;94.64;102034.84;4989240;28;20037;-78
2022/05/14 06:45:45;;;;;;;25.42;7.03;;;;;;;15.82;95.24;102041.00;4969824;28;20066;-79
2022/05/14 06:48:13;;;;;;;23.33;5.18;;;;;;;15.78;95.80;102050.75;4973877;28;20046;-78
2022/05/14 06:50:48;;;;;;;22.88;5.82;;;;;;;15.76;94.87;102050.78;4985405;28;20051;-79
2022/05/14 06:53:19;;;;;;;26.85;6.43;;;;;;;15.79;94.52;102052.53;4976746;28;20040;-78
2022/05/14 06:55:52;;;;;;;23.02;5.32;;;;;;;15.82;95.12;102046.31;5003479;28;20073;-80
2022/05/14 06:58:32;;;;;;;19.63;5.38;;;;;;;15.88;95.52;102051.63;5026137;28;20053;-78
2022/05/14 07:01:01;;;;;;;20.98;4.85;;;;;;;15.87;94.98;102053.41;4980230;28;20275;-78
2022/05/14 07:09:08;;;;;;;25.75;6.32;;;;;;;15.86;95.28;102059.63;4969882;28;20050;-78
2022/05/14 07:11:40;;;;;;;18.83;5.28;;;;;;;15.86;94.98;102064.94;4981554;28;20042;-79
2022/05/14 07:14:10;;;;;;;16.85;5.32;;;;;;;15.83;93.83;102067.59;4995670;28;20049;-79
2022/05/14 07:16:40;;;;;;;18.40;5.10;;;;;;;15.83;94.50;102064.94;5004592;28;20049;-79
2022/05/14 07:19:10;;;;;;;26.52;5.60;;;;;;;15.83;95.02;102064.94;4985351;28;20038;-80
2022/05/14 07:21:41;;;;;;;20.63;5.22;;;;;;;15.89;95.32;102069.38;4986231;28;20046;-79
2022/05/14 07:24:13;;;;;;;16.05;4.63;;;;;;;16.05;95.26;102076.47;4992729;28;20042;-79
2022/05/14 07:26:43;;;;;;;18.95;4.80;;;;;;;16.14;94.75;102070.25;4984046;28;20114;-78
2022/05/14 07:29:14;;;;;;;23.05;5.50;;;;;;;16.23;95.09;102072.91;4985481;28;20199;-78
2022/05/14 07:31:42;;;;;;;16.45;4.85;;;;;;;16.19;92.93;102073.81;4998377;28;20038;-79
2022/05/14 07:34:11;;;;;;;16.73;4.38;;;;;;;16.18;91.23;102080.00;4964708;28;20057;-79
2022/05/14 07:36:52;;;;;;;13.88;4.50;;;;;;;16.09;89.33;102074.72;4980159;28;20057;-79
2022/05/14 07:39:24;;;;;;;10.23;3.28;;;;;;;16.06;87.27;102088.00;4988234;28;20033;-79
2022/05/14 07:41:56;;;;;;;11.57;3.70;;;;;;;16.08;87.43;102081.78;4989019;28;20037;-79
2022/05/14 07:44:39;;;;;;;10.95;4.13;;;;;;;16.14;87.00;102094.19;5007475;28;20053;-79
2022/05/14 07:47:09;;;;;;;11.20;3.17;;;;;;;16.20;85.19;102090.63;4996040;28;20046;-79
2022/05/14 07:49:37;;;;;;;15.30;4.40;;;;;;;16.24;85.63;102084.44;4977039;28;20053;-79
2022/05/14 07:52:07;;;;;;;14.00;3.28;;;;;;;16.29;84.85;102088.84;4993759;28;20034;-78
2022/05/14 07:54:35;;;;;;;10.68;3.47;;;;;;;16.36;85.06;102090.63;4969742;28;20043;-79
2022/05/14 07:57:06;;;;;;;16.10;4.00;;;;;;;16.36;83.88;102087.97;5001431;28;20547;-78
2022/05/14 07:59:35;;;;;;;14.80;5.35;;;;;;;16.40;83.08;102102.16;4982871;28;20419;-78
2022/05/14 08:02:09;;;;;;;16.35;4.30;;;;;;;16.40;83.41;102094.16;4981251;28;20049;-78
2022/05/14 08:04:39;;;;;;;15.02;4.60;;;;;;;16.48;83.21;102080.84;4985075;28;20527;-79
2022/05/14 08:07:08;;;;;;;13.88;3.42;;;;;;;16.53;82.20;102100.38;4969142;28;20038;-78
2022/05/14 08:09:36;;;;;;;12.77;3.95;;;;;;;16.52;82.12;102091.50;5009105;28;20042;-79
2022/05/14 08:12:07;;;;;;;15.20;4.15;;;;;;;16.55;82.13;102098.59;5020245;28;20027;-79
2022/05/14 08:14:39;;;;;;;15.63;3.90;;;;;;;16.51;81.59;102087.06;4983419;28;20038;-79
2022/05/14 08:17:09;;;;;;;13.95;4.00;;;;;;;16.51;81.68;102096.81;4983523;28;20085;-79
2022/05/14 08:19:38;;;;;;;;;;;;;;;16.55;79.00;102087.94;5003172;28;20050;-79
2022/05/14 08:24:54;;;;;;;11.45;4.03;;;;;;;16.61;80.89;102103.91;4998312;28;20031;-78
2022/05/14 08:27:22;;;;;;;17.08;4.32;;;;;;;16.64;80.73;102101.25;5001771;28;20041;-79
2022/05/14 08:29:51;;;;;;;15.13;4.10;;;;;;;16.71;80.73;102107.41;4998498;28;20383;-79
2022/05/14 08:32:21;;;;;;;13.75;4.22;;;;;;;16.81;81.07;102100.31;4985813;28;20394;-79
2022/05/14 08:34:50;;;;;;;19.50;4.13;;;;;;;16.90;80.10;102109.19;5000724;28;20053;-79
2022/05/14 08:37:23;;;;;;;;;;;;;;;16.87;78.47;102118.97;4965993;28;20702;-78
2022/05/14 08:39:51;;;;;;;12.43;4.43;;;;;;;16.91;80.17;102102.09;4989195;28;19932;-79
2022/05/14 08:42:20;;;;;;;17.40;4.68;;;;;;;16.99;80.44;102115.38;4999506;28;20054;-80
2022/05/14 08:44:49;;;;;;;16.05;4.53;;;;;;;17.04;79.36;102114.47;4989372;28;20038;-79
2022/05/14 08:47:27;;;;;;;;;;;;;;;17.03;77.45;102117.13;4980668;28;20053;-79
2022/05/14 08:49:57;;;;;;;19.85;4.45;;;;;;;17.10;79.65;102110.91;4992158;28;20393;-78
2022/05/14 08:52:33;;;;;;;14.35;3.90;;;;;;;17.12;79.08;102106.44;4971822;28;20151;-78
2022/05/14 08:55:14;;;;;;;21.77;3.80;;;;;;;17.18;78.71;102118.84;4988262;28;20042;-77
2022/05/14 08:58:03;;;;;;;13.77;4.03;;;;;;;17.25;76.60;102107.28;4994162;28;20052;-78
2022/05/14 09:00:32;;;;;;;16.43;4.20;;;;;;;17.30;77.97;102106.38;4994235;28;20093;-78
2022/05/14 09:06:34;;;;;;;19.40;4.43;;;;;;;17.38;76.61;102117.00;4986313;28;20050;-78
2022/05/14 09:09:03;;;;;;;15.60;4.97;;;;;;;17.41;77.36;102114.31;4972953;28;20049;-78
2022/05/14 09:11:45;;;;;;;17.13;4.85;;;;;;;17.56;76.51;102120.44;4978686;28;20487;-78
2022/05/14 09:14:38;;;;;;;14.80;4.38;;;;;;;17.57;75.19;102115.13;4983959;28;20057;-79
2022/05/14 09:17:19;;;;;;;18.50;4.82;;;;;;;17.58;76.57;102118.66;4989186;28;20427;-79
2022/05/14 09:19:53;;;;;;;17.40;4.60;;;;;;;17.54;76.82;102126.69;4990343;28;20038;-78
2022/05/14 09:22:34;;;;;;;13.55;4.43;;;;;;;17.51;77.00;102120.47;5002659;28;20050;-78
2022/05/14 09:25:16;;;;;;;19.52;4.45;;;;;;;17.56;77.71;102129.34;4980373;28;20153;-78
2022/05/14 09:27:57;;;;;;;12.57;4.18;;;;;;;17.63;76.31;102131.06;4994045;28;20395;-79
2022/05/14 09:30:36;;;;;;;14.77;4.47;;;;;;;17.64;74.20;102126.63;5009654;28;20069;-77
2022/05/14 09:33:09;;;;;;;15.88;4.53;;;;;;;17.59;75.94;102128.44;4992164;28;20045;-78
2022/05/14 09:35:38;;;;;;;12.48;4.05;;;;;;;17.60;75.69;102135.53;4998052;28;20492;-78
2022/05/14 09:38:43;;;;;;;16.98;4.18;;;;;;;17.51;74.47;102142.69;5005259;28;20401;-79
2022/05/14 09:41:46;;;;;;;14.60;4.60;;;;;;;17.42;76.61;102142.72;4965786;28;20414;-78
2022/05/14 09:44:25;;;;;;;24.90;5.53;;;;;;;17.50;75.90;102138.25;4972207;28;20304;-80
2022/05/14 09:47:10;;;;;;;14.30;3.90;;;;;;;17.54;76.75;102137.34;4963041;28;20051;-78
2022/05/14 09:49:42;;;;;;;17.85;5.10;;;;;;;17.57;76.67;102141.75;4989187;28;20306;-79
2022/05/14 09:52:13;;;;;;;17.48;4.40;;;;;;;17.50;76.77;102142.69;4973988;28;20255;-79
2022/05/14 09:54:46;;;;;;;15.45;4.00;;;;;;;17.46;77.18;102144.47;4981652;28;20046;-79
2022/05/14 09:57:36;;;;;;;17.92;4.22;;;;;;;17.48;75.80;102153.34;4966577;28;20252;-79
2022/05/14 10:00:16;;;;;;;20.77;4.57;;;;;;;17.57;76.70;102146.22;4975990;28;20034;-78
2022/05/14 10:02:44;;;;;;;18.80;4.53;;;;;;;17.73;77.03;102150.53;4986469;28;20045;-78
2022/05/14 10:05:52;;;;;;;17.25;4.60;;;;;;;17.96;76.78;102150.47;4995837;28;20038;-78
2022/05/14 10:08:36;;;;;;;17.15;4.40;;;;;;;18.02;75.76;102149.53;4992473;28;20062;-78
2022/05/14 10:11:28;;;;;;;21.60;5.18;;;;;;;18.11;74.00;102154.81;4963979;28;20046;-79
2022/05/14 10:14:22;;;;;;;15.88;5.00;;;;;;;18.23;74.30;102144.03;4990359;28;20046;-79
2022/05/14 10:17:28;;;;;;;16.90;4.25;;;;;;;18.32;73.31;102151.09;4999996;28;20046;-78
2022/05/14 10:20:35;;;;;;;21.02;4.72;;;;;;;18.41;72.08;102156.34;4989961;28;20042;-79
2022/05/14 10:26:58;;;;;;;20.75;4.30;;;;;;;18.47;73.59;102161.63;4973334;28;20104;-79
2022/05/14 10:30:05;;;;;;;17.13;4.70;;;;;;;18.59;73.43;102159.75;4999536;28;20041;-79
2022/05/14 10:32:34;;;;;;;20.48;4.82;;;;;;;18.75;73.19;102161.38;4986912;28;20042;-78
2022/05/14 10:35:19;;;;;;;16.92;5.53;;;;;;;18.94;72.55;102163.84;4987243;28;20061;-78
2022/05/14 10:37:55;;;;;;;23.02;5.40;;;;;;;19.15;71.53;102163.63;5007594;28;20483;-78
2022/05/14 10:40:35;;;;;;;17.20;4.80;;;;;;;19.26;69.39;102152.81;4980533;28;20050;-80
2022/05/14 10:43:07;;;;;;;;;;;;;;;19.16;65.61;102156.50;4973615;28;20069;-78
2022/05/14 10:45:42;;;;;;;15.07;4.88;;;;;;;19.12;70.39;102160.13;4991496;28;19926;-80
2022/05/14 10:48:35;;;;;;;18.85;4.50;;;;;;;19.18;67.22;102160.91;4992102;28;20042;-79
2022/05/14 10:51:08;;;;;;;16.98;4.85;;;;;;;19.09;68.39;102159.25;4990853;28;20525;-80
2022/05/14 10:53:42;;;;;;;17.90;5.05;;;;;;;19.05;68.01;102165.53;5002329;28;20045;-79
2022/05/14 10:56:15;;;;;;;19.27;4.97;;;;;;;19.05;67.86;102162.88;4989108;28;20539;-80
2022/05/14 10:58:58;;;;;;;19.05;5.22;;;;;;;19.05;66.30;102167.31;4968627;28;20061;-80
2022/05/14 11:01:52;;;;;;;19.10;4.50;;;;;;;19.15;67.92;102168.97;4997138;28;20052;-78
2022/05/14 11:04:31;;;;;;;20.83;5.30;;;;;;;19.22;68.22;102165.31;4984462;28;23454;-79
2022/05/14 11:07:09;;;;;;;21.67;4.88;;;;;;;19.23;66.26;102164.44;4987321;28;20447;-80
2022/05/14 11:09:45;;;;;;;19.55;4.63;;;;;;;19.19;67.81;102172.50;4986106;28;20057;-80
2022/05/14 11:12:18;;;;;;;17.35;4.90;;;;;;;19.06;67.29;102164.63;4976044;28;20088;-79
2022/05/14 11:14:56;;;;;;;17.85;5.32;;;;;;;18.93;66.68;102168.31;5001453;28;20504;-79
2022/05/14 11:17:25;;;;;;;17.90;5.10;;;;;;;18.97;68.34;102172.72;5010317;28;20038;-80
2022/05/14 11:20:07;;;;;;;18.85;5.20;;;;;;;19.16;67.45;102173.41;4975266;28;20177;-79
2022/05/14 11:22:43;;;;;;;14.50;5.07;;;;;;;19.19;67.36;102167.16;4998404;28;20046;-80
2022/05/14 11:25:25;;;;;;;19.67;5.00;;;;;;;19.25;66.33;102162.63;5005205;28;20072;-78
2022/05/14 11:28:08;;;;;;;18.58;5.57;;;;;;;19.43;67.31;102160.59;4988140;28;20038;-80
2022/05/14 11:30:54;;;;;;;16.33;4.45;;;;;;;19.56;65.90;102174.72;4979926;28;20049;-79
2022/05/14 11:33:26;;;;;;;13.77;4.35;;;;;;;19.64;65.42;102167.47;4986222;28;20056;-80
2022/05/14 11:36:00;;;;;;;17.58;5.28;;;;;;;19.74;65.77;102169.16;4993295;28;20058;-79
2022/05/14 11:38:37;;;;;;;21.83;4.83;;;;;;;19.89;65.76;102172.53;5018480;28;20077;-78
2022/05/14 11:41:25;;;;;;;19.23;5.15;;;;;;;19.91;65.22;102165.34;4979802;28;20050;-79
2022/05/14 11:43:55;;;;;;;20.13;5.32;;;;;;;19.93;64.68;102167.09;4986441;28;20046;-79
2022/05/14 11:46:49;;;;;;;18.20;5.00;;;;;;;19.89;63.98;102167.19;4984575;28;20339;-79
2022/05/14 11:49:41;;;;;;;17.98;4.95;;;;;;;19.86;63.15;102166.28;4985429;28;20726;-79
2022/05/14 11:52:22;;;;;;;19.98;4.97;;;;;;;19.89;60.16;102173.41;4986709;28;20058;-80
2022/05/14 11:55:15;;;;;;;18.52;4.93;;;;;;;19.85;62.04;102172.56;4993779;28;20052;-80
2022/05/14 11:57:52;;;;;;;18.27;5.35;;;;;;;19.92;63.78;102172.47;4989810;28;20042;-78
2022/05/14 12:00:27;;;;;;;19.73;5.40;;;;;;;20.02;63.36;102172.31;4989557;28;20166;-79
2022/05/14 12:03:40;;;;;;;17.10;5.22;;;;;;;20.16;61.55;102160.50;4996798;28;20039;-80
2022/05/14 12:06:48;;;;;;;23.50;5.25;;;;;;;20.24;61.76;102159.47;4996746;28;20057;-79
2022/05/14 12:10:05;;;;;;;17.45;4.72;;;;;;;20.31;60.73;102172.75;4990712;28;20050;-79
2022/05/14 12:12:52;;;;;;;17.77;4.78;;;;;;;20.28;58.15;102167.44;4991427;28;20065;-79